Time;durP1;ratioP1;P1;durP2;ratioP2;P2;SDS_P1;SDS_P2;PMS_P1;PMS_P2;Temp;Humidity;BMP_temperature;BMP_pressure;BME280_temperature;BME280_humidity;BME280_pressure;Samples;Min_cycle;Max_cycle;Signal;HPM_P1;HPM_P2
2022/01/18 00:00:29;;;;;;;5.53;2.08;;;;;;;;;;5033275;28;20477;-68
2022/01/18 00:02:55;;;;;;;6.13;2.42;;;;;;;;;;5032419;28;20525;-68
2022/01/18 00:05:21;;;;;;;4.97;2.05;;;;;;;;;;5032564;28;20040;-68
2022/01/18 00:07:48;;;;;;;5.55;2.15;;;;;;;;;;5030596;28;20080;-68
2022/01/18 00:10:14;;;;;;;4.68;2.22;;;;;;;;;;5031810;28;20397;-68
2022/01/18 00:17:54;;;;;;;5.47;2.25;;;;;;;;;;5037411;28;20045;-68
2022/01/18 00:20:33;;;;;;;5.03;2.33;;;;;;;;;;5031286;28;20115;-68
2022/01/18 00:22:59;;;;;;;3.42;1.10;;;;;;;;;;5042858;28;20427;-68
2022/01/18 00:25:25;;;;;;;2.35;0.70;;;;;;;;;;5028975;28;20105;-68
2022/01/18 00:27:51;;;;;;;4.47;1.98;;;;;;;;;;5035166;28;20033;-68
2022/01/18 00:30:53;;;;;;;4.95;1.80;;;;;;;;;;5031937;28;20022;-68
2022/01/18 00:33:24;;;;;;;5.05;2.10;;;;;;;;;;5031899;28;20072;-68
2022/01/18 00:36:01;;;;;;;3.50;1.45;;;;;;;;;;5032036;28;20025;-68
2022/01/18 00:38:31;;;;;;;3.90;1.35;;;;;;;;;;5032049;28;20090;-68
2022/01/18 00:40:57;;;;;;;5.97;2.40;;;;;;;;;;5030852;28;20098;-68
2022/01/18 00:43:23;;;;;;;6.22;2.60;;;;;;;;;;5029165;28;20155;-68
2022/01/18 00:45:49;;;;;;;4.57;1.70;;;;;;;;;;5034326;28;20025;-68
2022/01/18 00:48:15;;;;;;;3.25;1.10;;;;;;;;;;5032206;28;20079;-68
2022/01/18 00:50:41;;;;;;;3.53;1.48;;;;;;;;;;5034369;28;20025;-68
2022/01/18 00:53:11;;;;;;;5.03;1.50;;;;;;;;;;5041996;28;20037;-68
2022/01/18 00:55:48;;;;;;;4.07;1.75;;;;;;;;;;5028415;28;20048;-68
2022/01/18 00:58:15;;;;;;;3.33;1.50;;;;;;;;;;5031327;28;20112;-68
2022/01/18 01:00:41;;;;;;;4.78;1.60;;;;;;;;;;5033534;28;20144;-68
2022/01/18 01:03:07;;;;;;;5.47;1.85;;;;;;;;;;5031713;28;20206;-68
2022/01/18 01:05:34;;;;;;;2.10;1.50;;;;;;;;;;5031390;28;20385;-68
2022/01/18 01:08:00;;;;;;;3.80;1.50;;;;;;;;;;5031884;28;20108;-68
2022/01/18 01:10:27;;;;;;;3.45;1.35;;;;;;;;;;5031028;28;20052;-68
2022/01/18 01:12:53;;;;;;;2.75;1.10;;;;;;;;;;5038271;28;20036;-68
2022/01/18 01:15:21;;;;;;;3.53;1.58;;;;;;;;;;5043952;28;20029;-68
2022/01/18 01:18:09;;;;;;;3.05;1.30;;;;;;;;;;5040659;28;20108;-68
2022/01/18 01:45:02;;;;;;;4.00;1.77;;;;;;;;;;5034366;28;20594;-69
2022/01/18 01:47:36;;;;;;;3.00;1.65;;;;;;;;;;5042769;28;20026;-69
2022/01/18 01:50:06;;;;;;;2.60;1.38;;;;;;;;;;5032171;28;20034;-69
2022/01/18 01:52:32;;;;;;;2.05;1.02;;;;;;;;;;5015738;28;20017;-69
2022/01/18 01:54:58;;;;;;;2.40;1.00;;;;;;;;;;5037052;28;20187;-69
2022/01/18 01:57:25;;;;;;;2.60;1.00;;;;;;;;;;5034576;28;20041;-69
2022/01/18 01:59:51;;;;;;;3.53;1.42;;;;;;;;;;5034567;28;20021;-69
2022/01/18 02:02:17;;;;;;;2.65;1.30;;;;;;;;;;5034972;28;20037;-69
2022/01/18 02:04:43;;;;;;;2.95;1.48;;;;;;;;;;5031990;28;20032;-69
2022/01/18 02:07:09;;;;;;;4.20;1.42;;;;;;;;;;5034259;28;20072;-69
2022/01/18 02:09:35;;;;;;;3.67;1.42;;;;;;;;;;5035556;28;20057;-69
2022/01/18 02:12:01;;;;;;;2.17;1.20;;;;;;;;;;5034469;28;20067;-69
2022/01/18 02:14:29;;;;;;;2.03;1.02;;;;;;;;;;5038635;28;20559;-69
2022/01/18 02:22:25;;;;;;;4.90;1.60;;;;;;;;;;5047007;28;20040;-69
2022/01/18 02:24:51;;;;;;;2.63;1.20;;;;;;;;;;5052526;28;20416;-69
2022/01/18 02:27:18;;;;;;;2.95;0.98;;;;;;;;;;5034092;28;20105;-69
2022/01/18 02:29:44;;;;;;;2.28;1.05;;;;;;;;;;5034025;28;20461;-69
2022/01/18 02:32:10;;;;;;;5.25;1.73;;;;;;;;;;5034297;28;20028;-69
2022/01/18 02:34:36;;;;;;;3.60;1.38;;;;;;;;;;5030376;28;20433;-69
2022/01/18 02:37:04;;;;;;;4.13;1.50;;;;;;;;;;5035208;28;20064;-69
2022/01/18 02:39:30;;;;;;;1.58;0.80;;;;;;;;;;5034842;28;20116;-69
2022/01/18 02:41:59;;;;;;;2.92;0.73;;;;;;;;;;5033999;28;20025;-69
2022/01/18 02:44:25;;;;;;;1.55;0.80;;;;;;;;;;5033825;28;20423;-69
2022/01/18 02:46:51;;;;;;;1.85;1.15;;;;;;;;;;5032191;28;20083;-69
2022/01/18 02:49:18;;;;;;;2.25;0.90;;;;;;;;;;5032223;28;20053;-69
2022/01/18 02:51:44;;;;;;;1.23;0.80;;;;;;;;;;5046572;28;20067;-69
2022/01/18 02:54:11;;;;;;;1.95;1.13;;;;;;;;;;5035650;28;20026;-69
2022/01/18 02:56:44;;;;;;;1.17;1.00;;;;;;;;;;5033550;28;20098;-69
2022/01/18 03:04:25;;;;;;;2.10;1.15;;;;;;;;;;5030190;28;20109;-69
2022/01/18 03:06:51;;;;;;;3.63;0.75;;;;;;;;;;5036283;28;20029;-69
2022/01/18 03:09:17;;;;;;;1.85;0.90;;;;;;;;;;5032960;28;20436;-69
2022/01/18 03:11:43;;;;;;;2.25;1.08;;;;;;;;;;5033310;28;20547;-69
2022/01/18 03:14:09;;;;;;;1.15;0.60;;;;;;;;;;5032509;28;20055;-69
2022/01/18 03:16:35;;;;;;;1.17;0.70;;;;;;;;;;5043824;28;20064;-69
2022/01/18 03:19:01;;;;;;;1.10;0.68;;;;;;;;;;5035829;28;20033;-70
2022/01/18 03:21:27;;;;;;;3.05;1.25;;;;;;;;;;5041624;28;20040;-69
2022/01/18 03:24:09;;;;;;;2.40;1.10;;;;;;;;;;5037652;28;20021;-69
2022/01/18 03:28:03;;;;;;;4.07;1.40;;;;;;;;;;5032599;28;20060;-69
2022/01/18 03:29:21;;;;;;;1.35;0.77;;;;;;;;;;5033026;28;20029;-69
2022/01/18 03:31:47;;;;;;;1.67;0.90;;;;;;;;;;5030565;28;20149;-69
2022/01/18 03:34:13;;;;;;;1.77;0.93;;;;;;;;;;5032567;28;20033;-69
2022/01/18 03:36:39;;;;;;;2.55;1.00;;;;;;;;;;5033380;28;20061;-69
2022/01/18 03:39:05;;;;;;;3.28;1.20;;;;;;;;;;5033059;28;20108;-69
2022/01/18 03:41:31;;;;;;;2.25;1.00;;;;;;;;;;5032792;28;20624;-69
2022/01/18 03:43:57;;;;;;;2.15;0.88;;;;;;;;;;5031925;28;20032;-69
2022/01/18 03:46:24;;;;;;;2.63;1.10;;;;;;;;;;5029818;28;20084;-69
2022/01/18 03:48:51;;;;;;;2.70;1.02;;;;;;;;;;5035478;28;20079;-69
2022/01/18 03:51:18;;;;;;;2.88;1.15;;;;;;;;;;5039401;28;20033;-69
2022/01/18 03:53:44;;;;;;;2.65;1.20;;;;;;;;;;5038281;28;20041;-68
2022/01/18 03:56:10;;;;;;;1.58;1.05;;;;;;;;;;5032284;28;20410;-69
2022/01/18 03:58:37;;;;;;;1.80;0.95;;;;;;;;;;5028697;28;20033;-69
2022/01/18 04:01:03;;;;;;;2.42;1.10;;;;;;;;;;5034305;28;20442;-68
2022/01/18 04:03:29;;;;;;;2.03;0.98;;;;;;;;;;5033240;28;20037;-68
2022/01/18 04:05:56;;;;;;;2.60;1.30;;;;;;;;;;5032235;28;20029;-68
2022/01/18 04:08:22;;;;;;;4.00;1.10;;;;;;;;;;5032402;28;20033;-68
2022/01/18 04:10:49;;;;;;;2.00;0.73;;;;;;;;;;5029277;28;20051;-69
2022/01/18 04:13:15;;;;;;;1.65;1.00;;;;;;;;;;5046537;28;20536;-68
2022/01/18 04:15:41;;;;;;;1.70;0.52;;;;;;;;;;5045264;28;20024;-68
2022/01/18 04:26:56;;;;;;;3.15;0.90;;;;;;;;;;5032272;28;20120;-68
2022/01/18 04:28:55;;;;;;;2.13;0.75;;;;;;;;;;5031197;28;20055;-68
2022/01/18 04:31:22;;;;;;;3.80;1.10;;;;;;;;;;5029737;28;20073;-68
2022/01/18 04:33:48;;;;;;;1.70;0.93;;;;;;;;;;5032162;28;20507;-69
2022/01/18 04:36:15;;;;;;;1.52;0.70;;;;;;;;;;5027581;28;20034;-68
2022/01/18 04:38:41;;;;;;;2.38;1.02;;;;;;;;;;5027670;28;20072;-68
2022/01/18 04:41:11;;;;;;;1.65;0.60;;;;;;;;;;5028288;28;20060;-68
2022/01/18 04:49:05;;;;;;;3.05;1.25;;;;;;;;;;5032943;28;20036;-68
2022/01/18 04:51:31;;;;;;;2.00;0.95;;;;;;;;;;5035899;28;20052;-68
2022/01/18 04:53:59;;;;;;;2.22;0.90;;;;;;;;;;5031783;28;20083;-70
2022/01/18 04:59:02;;;;;;;1.67;0.60;;;;;;;;;;5031133;28;20099;-68
2022/01/18 05:01:28;;;;;;;0.98;0.50;;;;;;;;;;5031871;28;20079;-68
2022/01/18 05:03:54;;;;;;;1.20;0.70;;;;;;;;;;5033588;28;20392;-68
2022/01/18 05:06:20;;;;;;;1.60;0.73;;;;;;;;;;5036872;28;20057;-68
2022/01/18 05:08:47;;;;;;;3.08;1.30;;;;;;;;;;5035437;28;20060;-67
2022/01/18 05:11:15;;;;;;;1.58;0.95;;;;;;;;;;5035453;28;20116;-68
2022/01/18 05:21:27;;;;;;;3.00;0.93;;;;;;;;;;5043577;28;20087;-67
2022/01/18 05:23:54;;;;;;;1.98;1.00;;;;;;;;;;5039586;28;20022;-67
2022/01/18 05:26:21;;;;;;;1.33;0.70;;;;;;;;;;5035353;28;20029;-68
2022/01/18 05:28:47;;;;;;;2.10;0.80;;;;;;;;;;5034349;28;20017;-67
2022/01/18 05:31:13;;;;;;;2.35;0.90;;;;;;;;;;5035048;28;20029;-68
2022/01/18 05:33:41;;;;;;;1.15;0.60;;;;;;;;;;5036610;28;20108;-68
2022/01/18 05:36:07;;;;;;;1.95;0.77;;;;;;;;;;5034690;28;20029;-68
2022/01/18 05:38:35;;;;;;;0.90;0.55;;;;;;;;;;5033451;28;20052;-68
2022/01/18 05:41:01;;;;;;;3.05;1.13;;;;;;;;;;5033688;28;20064;-68
2022/01/18 05:43:27;;;;;;;3.00;1.00;;;;;;;;;;5030304;28;20045;-68
2022/01/18 05:45:53;;;;;;;2.38;0.82;;;;;;;;;;5036544;28;20018;-68
2022/01/18 05:48:19;;;;;;;0.98;0.63;;;;;;;;;;5033622;28;20056;-68
2022/01/18 05:50:45;;;;;;;2.38;0.77;;;;;;;;;;5036192;28;20025;-68
2022/01/18 05:53:11;;;;;;;1.55;0.90;;;;;;;;;;5043484;28;20037;-67
2022/01/18 05:55:37;;;;;;;1.83;0.70;;;;;;;;;;5029578;28;20026;-67
2022/01/18 05:58:03;;;;;;;1.67;0.80;;;;;;;;;;5035620;28;20072;-68
2022/01/18 06:00:31;;;;;;;1.52;0.73;;;;;;;;;;5034260;28;20083;-67
2022/01/18 06:08:08;;;;;;;2.97;1.42;;;;;;;;;;5033117;28;20128;-64
2022/01/18 06:10:34;;;;;;;2.85;1.42;;;;;;;;;;5029441;28;20026;-65
2022/01/18 06:13:02;;;;;;;2.15;0.90;;;;;;;;;;5036250;28;20571;-64
2022/01/18 06:15:28;;;;;;;1.13;0.60;;;;;;;;;;5043991;28;20025;-65
2022/01/18 06:17:54;;;;;;;1.60;0.90;;;;;;;;;;5036976;28;20379;-65
2022/01/18 06:20:20;;;;;;;2.40;1.30;;;;;;;;;;5032035;28;20036;-67
2022/01/18 06:22:46;;;;;;;3.42;1.88;;;;;;;;;;5044728;28;20037;-67
2022/01/18 06:25:12;;;;;;;2.95;1.67;;;;;;;;;;5033211;28;20116;-67
2022/01/18 06:27:38;;;;;;;3.22;1.48;;;;;;;;;;5034012;28;20029;-67
2022/01/18 06:30:10;;;;;;;3.53;1.30;;;;;;;;;;5033733;28;20037;-69
2022/01/18 06:32:39;;;;;;;2.25;1.30;;;;;;;;;;5032174;28;20026;-68
2022/01/18 06:35:06;;;;;;;2.80;1.15;;;;;;;;;;5032630;28;20033;-68
2022/01/18 06:37:32;;;;;;;2.03;1.33;;;;;;;;;;4988990;28;1163005;-68
2022/01/18 06:40:00;;;;;;;4.15;1.58;;;;;;;;;;5036930;28;20044;-68
2022/01/18 06:42:26;;;;;;;5.60;1.38;;;;;;;;;;5035579;28;20392;-68
2022/01/18 06:44:53;;;;;;;2.58;1.25;;;;;;;;;;5033485;28;20025;-68
2022/01/18 06:47:19;;;;;;;3.00;1.50;;;;;;;;;;5033843;28;20028;-68
2022/01/18 06:49:45;;;;;;;4.05;1.73;;;;;;;;;;5030209;28;20025;-68
2022/01/18 06:52:11;;;;;;;3.90;1.95;;;;;;;;;;5047694;28;20031;-67
2022/01/18 06:54:37;;;;;;;5.10;1.85;;;;;;;;;;5031604;28;20021;-67
2022/01/18 06:57:03;;;;;;;4.03;1.75;;;;;;;;;;5033884;28;20120;-67
2022/01/18 06:59:29;;;;;;;3.33;1.88;;;;;;;;;;5032910;28;20384;-67
2022/01/18 07:01:56;;;;;;;4.95;2.20;;;;;;;;;;5032549;28;20029;-67
2022/01/18 07:04:21;;;;;;;4.57;1.83;;;;;;;;;;5031561;28;20033;-69
2022/01/18 07:06:48;;;;;;;5.10;1.90;;;;;;;;;;5034655;28;20029;-67
2022/01/18 07:09:15;;;;;;;4.18;1.90;;;;;;;;;;5033149;28;20116;-68
2022/01/18 07:11:41;;;;;;;3.40;1.60;;;;;;;;;;5033115;28;20116;-67
2022/01/18 07:14:07;;;;;;;3.60;1.55;;;;;;;;;;5032184;28;20025;-67
2022/01/18 07:16:33;;;;;;;4.15;1.63;;;;;;;;;;5044643;28;20047;-67
2022/01/18 07:18:59;;;;;;;2.97;1.63;;;;;;;;;;5036272;28;20104;-67
2022/01/18 07:21:25;;;;;;;3.17;1.60;;;;;;;;;;5041494;28;20111;-68
2022/01/18 07:23:59;;;;;;;2.28;1.20;;;;;;;;;;5037907;28;20120;-68
2022/01/18 07:26:25;;;;;;;3.60;1.58;;;;;;;;;;5032899;28;20389;-67
2022/01/18 07:28:51;;;;;;;3.80;1.63;;;;;;;;;;5032369;28;20025;-68
2022/01/18 07:31:17;;;;;;;4.57;1.77;;;;;;;;;;5032125;28;20037;-68
2022/01/18 07:33:43;;;;;;;3.83;1.90;;;;;;;;;;5034625;28;20108;-67
2022/01/18 07:36:09;;;;;;;4.78;2.00;;;;;;;;;;5033048;28;20029;-68
2022/01/18 07:38:35;;;;;;;4.55;2.13;;;;;;;;;;5032752;28;20056;-67
2022/01/18 07:41:01;;;;;;;4.20;2.00;;;;;;;;;;5032590;28;20115;-68
2022/01/18 07:43:27;;;;;;;5.72;2.42;;;;;;;;;;5028977;28;20121;-67
2022/01/18 07:45:53;;;;;;;5.57;2.78;;;;;;;;;;5035506;28;20033;-67
2022/01/18 07:48:23;;;;;;;5.68;2.58;;;;;;;;;;5032304;28;20487;-68
2022/01/18 07:50:51;;;;;;;4.45;2.05;;;;;;;;;;5035873;28;20025;-67
2022/01/18 07:53:17;;;;;;;3.72;2.15;;;;;;;;;;5042205;28;20469;-67
2022/01/18 07:55:43;;;;;;;4.07;2.00;;;;;;;;;;5029874;28;20096;-67
2022/01/18 07:58:09;;;;;;;3.55;1.65;;;;;;;;;;5032960;28;20037;-67
2022/01/18 08:00:35;;;;;;;1.70;0.88;;;;;;;;;;5033304;28;20022;-68
2022/01/18 08:03:02;;;;;;;1.73;1.00;;;;;;;;;;5032297;28;20564;-67
2022/01/18 08:05:28;;;;;;;1.95;1.27;;;;;;;;;;5032381;28;20519;-68
2022/01/18 08:07:54;;;;;;;5.35;2.00;;;;;;;;;;5031158;28;20036;-67
2022/01/18 08:10:21;;;;;;;4.35;2.28;;;;;;;;;;5030258;28;20025;-67
2022/01/18 08:12:47;;;;;;;3.25;1.80;;;;;;;;;;5034564;28;20378;-68
2022/01/18 08:15:16;;;;;;;5.78;2.25;;;;;;;;;;5040046;28;20024;-67
2022/01/18 08:17:43;;;;;;;4.93;2.30;;;;;;;;;;5038210;28;20404;-67
2022/01/18 08:20:14;;;;;;;4.67;2.30;;;;;;;;;;5029769;28;20396;-67
2022/01/18 08:22:40;;;;;;;3.75;2.03;;;;;;;;;;5042129;28;20084;-67
2022/01/18 08:25:07;;;;;;;6.32;2.20;;;;;;;;;;5031295;28;20021;-66
2022/01/18 08:27:33;;;;;;;4.70;2.17;;;;;;;;;;5032602;28;20112;-67
2022/01/18 08:29:59;;;;;;;4.05;2.33;;;;;;;;;;5025726;28;20113;-67
2022/01/18 08:32:25;;;;;;;4.63;2.22;;;;;;;;;;5030604;28;20108;-67
2022/01/18 08:34:51;;;;;;;4.60;2.40;;;;;;;;;;5028625;28;20026;-67
2022/01/18 08:37:17;;;;;;;5.95;2.50;;;;;;;;;;5028412;28;20187;-67
2022/01/18 08:39:43;;;;;;;4.88;2.30;;;;;;;;;;5031690;28;20029;-67
2022/01/18 08:42:10;;;;;;;6.45;2.63;;;;;;;;;;5030232;28;20029;-66
2022/01/18 08:44:36;;;;;;;5.00;2.42;;;;;;;;;;5030318;28;20030;-66
2022/01/18 08:47:03;;;;;;;7.72;4.03;;;;;;;;;;5029581;28;20021;-67
2022/01/18 08:49:29;;;;;;;8.20;3.70;;;;;;;;;;5028750;28;20075;-67
2022/01/18 08:51:55;;;;;;;7.93;3.80;;;;;;;;;;5046270;28;20029;-67
2022/01/18 08:54:21;;;;;;;6.32;3.03;;;;;;;;;;5032203;28;20082;-67
2022/01/18 08:56:47;;;;;;;4.90;2.65;;;;;;;;;;5031642;28;20033;-67
2022/01/18 08:59:13;;;;;;;5.80;2.80;;;;;;;;;;5031973;28;20025;-67
2022/01/18 09:01:39;;;;;;;5.40;2.38;;;;;;;;;;5028513;28;20030;-67
2022/01/18 09:04:05;;;;;;;6.07;2.50;;;;;;;;;;5033440;28;20043;-67
2022/01/18 09:06:31;;;;;;;4.88;2.40;;;;;;;;;;5032340;28;20033;-66
2022/01/18 09:08:58;;;;;;;3.53;2.00;;;;;;;;;;5031382;28;20026;-66
2022/01/18 09:11:25;;;;;;;4.07;2.05;;;;;;;;;;5031710;28;20160;-66
2022/01/18 09:13:52;;;;;;;3.63;1.90;;;;;;;;;;5030266;28;20504;-67
2022/01/18 09:16:21;;;;;;;2.97;1.50;;;;;;;;;;5045384;28;20041;-67
2022/01/18 09:18:50;;;;;;;4.45;1.60;;;;;;;;;;5049485;28;20107;-67
2022/01/18 09:21:16;;;;;;;3.22;1.40;;;;;;;;;;5037841;28;20045;-67
2022/01/18 09:23:42;;;;;;;1.77;1.13;;;;;;;;;;5037612;28;20033;-67
2022/01/18 09:26:08;;;;;;;3.30;1.75;;;;;;;;;;5031859;28;20024;-66
2022/01/18 09:28:34;;;;;;;5.63;1.80;;;;;;;;;;5029784;28;20029;-66
2022/01/18 09:31:01;;;;;;;3.30;1.90;;;;;;;;;;5036290;28;20022;-67
2022/01/18 09:33:27;;;;;;;4.07;2.00;;;;;;;;;;5038127;28;20131;-67
2022/01/18 09:35:53;;;;;;;3.95;1.60;;;;;;;;;;5039616;28;20013;-66
2022/01/18 09:38:19;;;;;;;4.00;1.95;;;;;;;;;;5034588;28;20385;-66
2022/01/18 09:40:46;;;;;;;3.22;1.10;;;;;;;;;;5032731;28;20068;-67
2022/01/18 09:43:14;;;;;;;1.80;1.10;;;;;;;;;;5034760;28;20496;-66
2022/01/18 09:45:41;;;;;;;2.28;1.15;;;;;;;;;;5036558;28;20148;-66
2022/01/18 09:48:08;;;;;;;3.40;1.60;;;;;;;;;;5034202;28;20030;-66
2022/01/18 09:50:34;;;;;;;3.42;1.30;;;;;;;;;;5036322;28;20188;-66
2022/01/18 09:53:01;;;;;;;4.07;1.67;;;;;;;;;;5045720;28;20041;-66
2022/01/18 09:55:29;;;;;;;5.38;1.45;;;;;;;;;;5030669;28;20025;-66
2022/01/18 09:57:56;;;;;;;3.27;1.50;;;;;;;;;;5053553;28;20378;-66
2022/01/18 10:00:23;;;;;;;4.78;1.77;;;;;;;;;;5034703;28;20469;-66
2022/01/18 10:02:49;;;;;;;2.50;1.52;;;;;;;;;;5034129;28;20022;-66
2022/01/18 10:05:18;;;;;;;5.97;1.75;;;;;;;;;;5034630;28;20098;-66
2022/01/18 10:07:44;;;;;;;3.35;1.40;;;;;;;;;;5030747;28;20481;-66
2022/01/18 10:10:10;;;;;;;3.92;1.88;;;;;;;;;;5035191;28;20045;-66
2022/01/18 10:12:36;;;;;;;2.15;1.45;;;;;;;;;;5035351;28;20026;-66
2022/01/18 10:15:04;;;;;;;3.97;1.48;;;;;;;;;;5040976;28;20084;-66
2022/01/18 10:17:30;;;;;;;;;;;;;;;;;;5042412;28;20033;-67
2022/01/18 10:20:01;;;;;;;4.20;1.30;;;;;;;;;;5031336;28;19916;-66
2022/01/18 10:22:35;;;;;;;4.35;2.03;;;;;;;;;;5046434;28;20030;-68
2022/01/18 10:25:20;;;;;;;5.53;2.33;;;;;;;;;;5036939;28;20021;-66
2022/01/18 10:27:47;;;;;;;5.32;2.28;;;;;;;;;;5041529;28;20051;-66
2022/01/18 10:30:21;;;;;;;5.88;2.50;;;;;;;;;;5037550;28;20165;-66
2022/01/18 10:33:13;;;;;;;2.15;1.60;;;;;;;;;;5033862;28;20036;-66
2022/01/18 10:36:02;;;;;;;3.10;1.80;;;;;;;;;;5033758;28;20492;-65
2022/01/18 10:38:28;;;;;;;3.67;1.80;;;;;;;;;;5036119;28;20435;-68
2022/01/18 10:40:54;;;;;;;2.60;1.60;;;;;;;;;;5032614;28;20029;-65
2022/01/18 10:43:32;;;;;;;3.42;1.90;;;;;;;;;;5031118;28;20487;-65
2022/01/18 10:46:16;;;;;;;3.47;1.92;;;;;;;;;;5044505;28;20029;-65
2022/01/18 10:48:48;;;;;;;3.67;1.60;;;;;;;;;;5035867;28;20038;-65
2022/01/18 10:51:28;;;;;;;3.47;1.50;;;;;;;;;;5040105;28;20068;-67
2022/01/18 10:53:58;;;;;;;3.17;1.50;;;;;;;;;;5038067;28;20366;-66
2022/01/18 10:56:24;;;;;;;2.40;1.30;;;;;;;;;;5033377;28;20556;-66
2022/01/18 10:58:58;;;;;;;3.22;1.75;;;;;;;;;;5032176;28;20079;-65
2022/01/18 11:01:24;;;;;;;4.05;2.00;;;;;;;;;;5030612;28;20088;-66
2022/01/18 11:04:08;;;;;;;3.53;1.77;;;;;;;;;;5035897;28;20481;-66
2022/01/18 11:06:36;;;;;;;2.85;1.52;;;;;;;;;;5031657;28;20034;-66
2022/01/18 11:09:12;;;;;;;4.60;2.30;;;;;;;;;;5033633;28;20026;-67
2022/01/18 11:11:45;;;;;;;6.10;2.33;;;;;;;;;;5033542;28;20109;-66
2022/01/18 11:14:12;;;;;;;6.60;2.25;;;;;;;;;;5031237;28;20326;-66
2022/01/18 11:16:43;;;;;;;5.63;2.13;;;;;;;;;;5044560;28;20060;-66
2022/01/18 11:19:18;;;;;;;4.05;2.08;;;;;;;;;;5031964;28;20044;-66
2022/01/18 11:21:48;;;;;;;5.82;2.53;;;;;;;;;;5043979;28;20061;-66
2022/01/18 11:24:17;;;;;;;5.85;2.83;;;;;;;;;;5032890;28;20057;-66
2022/01/18 11:26:45;;;;;;;5.95;2.55;;;;;;;;;;5031307;28;20025;-66
2022/01/18 11:29:16;;;;;;;5.47;2.63;;;;;;;;;;5033799;28;20024;-67
2022/01/18 11:31:46;;;;;;;5.15;2.53;;;;;;;;;;5026556;28;20289;-67
2022/01/18 11:34:14;;;;;;;4.68;2.30;;;;;;;;;;5030423;28;20060;-66
2022/01/18 11:36:47;;;;;;;8.25;2.53;;;;;;;;;;5034485;28;20049;-66
2022/01/18 11:39:13;;;;;;;4.43;2.20;;;;;;;;;;5030278;28;20045;-67
2022/01/18 11:41:39;;;;;;;3.63;2.00;;;;;;;;;;5029474;28;20401;-66
2022/01/18 11:44:19;;;;;;;5.78;2.15;;;;;;;;;;5032474;28;20036;-66
2022/01/18 11:46:52;;;;;;;5.95;2.20;;;;;;;;;;5029172;28;20041;-67
2022/01/18 11:49:22;;;;;;;5.07;2.42;;;;;;;;;;5030154;28;20032;-66
2022/01/18 11:52:02;;;;;;;4.30;2.33;;;;;;;;;;5033534;28;20022;-66
2022/01/18 11:57:12;;;;;;;4.75;2.50;;;;;;;;;;5031206;28;20508;-67
2022/01/18 11:59:39;;;;;;;5.22;2.53;;;;;;;;;;5027460;28;20044;-67
2022/01/18 12:02:05;;;;;;;5.83;2.50;;;;;;;;;;5034358;28;20049;-67
2022/01/18 12:04:54;;;;;;;5.47;2.60;;;;;;;;;;5026966;28;20867;-67
2022/01/18 12:07:38;;;;;;;5.57;2.47;;;;;;;;;;5030852;28;20440;-67
2022/01/18 12:10:23;;;;;;;5.25;2.70;;;;;;;;;;5030082;28;20137;-67
2022/01/18 12:12:51;;;;;;;5.15;2.70;;;;;;;;;;5034812;28;20029;-68
2022/01/18 12:15:23;;;;;;;7.20;3.00;;;;;;;;;;5039474;28;20029;-67
2022/01/18 12:18:03;;;;;;;5.90;2.95;;;;;;;;;;5036914;28;20436;-67
2022/01/18 12:20:33;;;;;;;6.65;3.20;;;;;;;;;;5031647;28;20021;-67
2022/01/18 12:23:00;;;;;;;8.18;3.58;;;;;;;;;;5042978;28;20060;-68
2022/01/18 12:25:26;;;;;;;8.23;3.50;;;;;;;;;;5028912;28;20036;-68
2022/01/18 12:27:55;;;;;;;12.30;3.85;;;;;;;;;;5035101;28;20033;-68
2022/01/18 12:31:05;;;;;;;17.35;4.53;;;;;;;;;;5033388;28;20388;-68
2022/01/18 12:33:21;;;;;;;18.92;4.50;;;;;;;;;;5030165;28;20041;-67
2022/01/18 12:35:48;;;;;;;12.10;3.53;;;;;;;;;;5031718;28;20030;-68
2022/01/18 12:38:24;;;;;;;14.07;3.70;;;;;;;;;;5031722;28;20071;-68
2022/01/18 12:40:50;;;;;;;13.85;4.55;;;;;;;;;;5029934;28;20030;-68
2022/01/18 12:45:42;;;;;;;11.93;4.10;;;;;;;;;;5033316;28;20060;-67
2022/01/18 12:48:10;;;;;;;8.57;3.53;;;;;;;;;;5031205;28;20126;-68
2022/01/18 12:50:36;;;;;;;12.05;4.05;;;;;;;;;;5033450;28;20053;-68
2022/01/18 12:53:05;;;;;;;7.90;3.67;;;;;;;;;;5031868;28;20104;-68
2022/01/18 12:55:31;;;;;;;8.90;3.55;;;;;;;;;;5027168;28;20531;-68
2022/01/18 12:58:03;;;;;;;7.88;3.60;;;;;;;;;;5035098;28;20768;-68
2022/01/18 13:00:29;;;;;;;7.10;3.20;;;;;;;;;;5032261;28;20481;-68
2022/01/18 13:03:02;;;;;;;7.63;3.20;;;;;;;;;;5031874;28;20025;-67
2022/01/18 13:05:39;;;;;;;7.63;3.22;;;;;;;;;;5032682;28;20128;-67
2022/01/18 13:08:05;;;;;;;7.53;3.40;;;;;;;;;;5035937;28;20029;-67
2022/01/18 13:10:35;;;;;;;10.15;4.03;;;;;;;;;;5030403;28;20087;-67
2022/01/18 13:13:01;;;;;;;7.80;3.50;;;;;;;;;;5046595;28;20135;-67
2022/01/18 13:15:46;;;;;;;9.35;4.00;;;;;;;;;;5046321;28;20029;-67
2022/01/18 13:26:49;;;;;;;7.88;3.70;;;;;;;;;;5029825;28;20045;-68
2022/01/18 13:29:21;;;;;;;9.13;3.72;;;;;;;;;;5046584;28;20028;-67
2022/01/18 13:31:59;;;;;;;9.15;4.38;;;;;;;;;;5033345;28;20026;-68
2022/01/18 13:34:33;;;;;;;8.27;3.72;;;;;;;;;;5032246;28;20018;-68
2022/01/18 13:37:02;;;;;;;8.10;3.70;;;;;;;;;;5045678;28;20060;-67
2022/01/18 13:39:31;;;;;;;7.95;4.15;;;;;;;;;;5037200;28;20046;-68
2022/01/18 13:41:59;;;;;;;12.02;4.55;;;;;;;;;;5034934;28;20026;-67
2022/01/18 13:44:25;;;;;;;10.10;4.50;;;;;;;;;;5034313;28;20036;-68
2022/01/18 13:46:51;;;;;;;9.07;4.10;;;;;;;;;;5033330;28;20026;-68
2022/01/18 13:49:17;;;;;;;7.40;3.85;;;;;;;;;;5034504;28;20057;-68
2022/01/18 13:52:00;;;;;;;9.05;3.97;;;;;;;;;;5047337;28;20036;-68
2022/01/18 13:54:28;;;;;;;7.72;3.70;;;;;;;;;;5034422;28;20457;-68
2022/01/18 13:56:55;;;;;;;11.20;4.90;;;;;;;;;;5034359;28;20041;-68
2022/01/18 13:59:26;;;;;;;10.23;4.00;;;;;;;;;;5034594;28;20526;-68
2022/01/18 14:01:52;;;;;;;10.20;4.88;;;;;;;;;;5033426;28;20408;-69
2022/01/18 14:04:20;;;;;;;9.07;4.43;;;;;;;;;;5033761;28;20033;-69
2022/01/18 14:06:51;;;;;;;8.95;4.60;;;;;;;;;;5036657;28;20067;-70
2022/01/18 14:09:21;;;;;;;9.68;4.00;;;;;;;;;;5034389;28;20400;-69
2022/01/18 14:11:51;;;;;;;12.73;7.15;;;;;;;;;;5034387;28;20057;-69
2022/01/18 14:14:21;;;;;;;9.93;5.63;;;;;;;;;;5034488;28;20026;-69
2022/01/18 14:16:47;;;;;;;11.18;6.57;;;;;;;;;;5045338;28;20417;-69
2022/01/18 14:19:13;;;;;;;14.23;6.50;;;;;;;;;;5034248;28;20116;-69
2022/01/18 14:21:50;;;;;;;10.98;6.95;;;;;;;;;;5045962;28;20151;-69
2022/01/18 14:24:22;;;;;;;13.77;7.18;;;;;;;;;;5037225;28;20453;-69
2022/01/18 14:26:54;;;;;;;14.65;7.43;;;;;;;;;;5034094;28;20021;-69
2022/01/18 14:29:27;;;;;;;12.98;7.57;;;;;;;;;;5035072;28;20117;-69
2022/01/18 14:32:16;;;;;;;11.25;6.35;;;;;;;;;;5032586;28;20025;-68
2022/01/18 14:34:49;;;;;;;11.88;6.35;;;;;;;;;;5014137;28;20444;-68
2022/01/18 14:37:15;;;;;;;12.18;5.07;;;;;;;;;;5032925;28;20053;-68
2022/01/18 14:40:11;;;;;;;15.05;9.05;;;;;;;;;;5035853;28;20075;-68
2022/01/18 14:42:58;;;;;;;11.57;5.15;;;;;;;;;;5031781;28;20068;-68
2022/01/18 14:47:51;;;;;;;8.60;4.05;;;;;;;;;;5033612;28;20030;-68
2022/01/18 14:50:19;;;;;;;11.13;4.10;;;;;;;;;;5032531;28;20025;-68
2022/01/18 14:52:47;;;;;;;11.45;6.15;;;;;;;;;;5045085;28;20030;-68
2022/01/18 14:55:13;;;;;;;8.65;5.13;;;;;;;;;;5032458;28;20025;-68
2022/01/18 14:57:40;;;;;;;8.18;3.92;;;;;;;;;;5033210;28;20077;-68
2022/01/18 15:00:07;;;;;;;13.95;7.40;;;;;;;;;;5033520;28;20018;-68
2022/01/18 15:02:33;;;;;;;19.73;10.10;;;;;;;;;;5033533;28;20448;-68
2022/01/18 15:04:59;;;;;;;23.48;13.02;;;;;;;;;;5032286;28;20118;-68
2022/01/18 15:07:25;;;;;;;27.77;14.77;;;;;;;;;;5028378;28;20501;-68
2022/01/18 15:09:51;;;;;;;21.33;11.15;;;;;;;;;;5035751;28;20022;-69
2022/01/18 15:12:18;;;;;;;20.50;11.07;;;;;;;;;;5034607;28;20393;-69
2022/01/18 15:14:44;;;;;;;22.27;11.23;;;;;;;;;;5036134;28;20025;-69
2022/01/18 15:17:09;;;;;;;21.40;9.75;;;;;;;;;;5043264;28;20067;-69
2022/01/18 15:19:37;;;;;;;20.15;9.23;;;;;;;;;;5044309;28;20022;-66
2022/01/18 15:22:07;;;;;;;14.13;6.03;;;;;;;;;;5031375;28;20018;-66
2022/01/18 15:24:33;;;;;;;16.17;8.35;;;;;;;;;;5047801;28;20455;-66
2022/01/18 15:26:59;;;;;;;21.77;8.90;;;;;;;;;;5026830;28;20037;-65
2022/01/18 15:29:29;;;;;;;15.27;8.50;;;;;;;;;;5032844;28;20022;-65
2022/01/18 15:31:55;;;;;;;15.23;7.93;;;;;;;;;;5029374;28;20022;-65
2022/01/18 15:34:22;;;;;;;19.70;7.97;;;;;;;;;;5028634;28;20068;-65
2022/01/18 15:36:48;;;;;;;12.65;6.30;;;;;;;;;;5030460;28;20045;-66
2022/01/18 15:39:14;;;;;;;14.35;6.82;;;;;;;;;;5029597;28;20079;-65
2022/01/18 15:41:41;;;;;;;13.02;7.68;;;;;;;;;;5030950;28;20044;-66
2022/01/18 15:44:08;;;;;;;17.33;9.70;;;;;;;;;;5032727;28;20451;-65
2022/01/18 15:46:34;;;;;;;15.90;8.25;;;;;;;;;;5028510;28;20067;-66
2022/01/18 15:49:00;;;;;;;14.40;7.03;;;;;;;;;;5035890;28;20024;-65
2022/01/18 15:51:26;;;;;;;14.13;6.75;;;;;;;;;;5040424;28;20021;-66
2022/01/18 15:53:52;;;;;;;24.30;7.82;;;;;;;;;;5037079;28;20072;-65
2022/01/18 15:56:18;;;;;;;22.98;10.00;;;;;;;;;;5032223;28;20384;-65
2022/01/18 15:58:45;;;;;;;22.25;10.95;;;;;;;;;;5029277;28;20121;-66
2022/01/18 16:01:11;;;;;;;21.02;12.60;;;;;;;;;;5032773;28;20468;-65
2022/01/18 16:03:37;;;;;;;17.42;11.13;;;;;;;;;;5033367;28;20052;-65
2022/01/18 16:06:03;;;;;;;17.33;10.05;;;;;;;;;;5032493;28;20473;-65
2022/01/18 16:08:29;;;;;;;16.00;9.00;;;;;;;;;;5032035;28;20029;-65
2022/01/18 16:10:55;;;;;;;12.98;7.93;;;;;;;;;;5030291;28;20032;-66
2022/01/18 16:13:21;;;;;;;13.45;7.15;;;;;;;;;;5030449;28;20529;-66